createdAt,value
2022-11-29T00:01:05.614Z,64.14
2022-11-29T00:03:32.889Z,64.96
2022-11-29T00:06:35.593Z,66.02
2022-11-29T00:09:06.484Z,65.06
2022-11-29T00:11:54.221Z,63.91
2022-11-29T00:14:21.420Z,63.63
2022-11-29T00:16:56.241Z,63.78
2022-11-29T00:19:23.254Z,64.52
2022-11-29T00:21:50.265Z,65.14
2022-11-29T00:24:17.327Z,66.20
2022-11-29T00:26:44.253Z,65.64
2022-11-29T00:29:12.813Z,63.87
2022-11-29T00:31:40.082Z,63.38
2022-11-29T00:34:07.178Z,63.87
2022-11-29T00:36:34.738Z,64.39
2022-11-29T00:39:02.171Z,64.97
2022-11-29T00:41:29.422Z,65.89
2022-11-29T00:43:56.404Z,65.43
2022-11-29T00:46:23.918Z,64.07
2022-11-29T00:48:50.929Z,63.16
2022-11-29T00:51:17.842Z,63.40
2022-11-29T00:53:44.803Z,64.01
2022-11-29T00:56:12.011Z,64.81
2022-11-29T00:58:39.088Z,65.38
2022-11-29T01:01:06.180Z,64.83
2022-11-29T01:04:08.148Z,63.79
2022-11-29T01:06:37.332Z,63.03
2022-11-29T01:09:05.217Z,63.28
2022-11-29T01:11:32.241Z,63.88
2022-11-29T01:14:00.557Z,64.69
2022-11-29T01:16:28.852Z,65.49
2022-11-29T01:18:56.468Z,65.32
2022-11-29T01:21:24.244Z,63.61
2022-11-29T01:23:52.068Z,63.60
2022-11-29T01:26:21.595Z,64.02
2022-11-29T01:28:49.538Z,64.69
2022-11-29T01:31:22.610Z,65.42
2022-11-29T01:33:52.436Z,66.29
2022-11-29T01:36:19.463Z,65.57
2022-11-29T01:38:46.643Z,63.75
2022-11-29T01:41:20.524Z,63.09
2022-11-29T01:44:07.353Z,63.51
2022-11-29T01:46:36.233Z,64.24
2022-11-29T01:49:16.431Z,64.80
2022-11-29T01:51:50.495Z,65.70
2022-11-29T01:54:18.206Z,65.08
2022-11-29T01:56:45.551Z,63.33
2022-11-29T01:59:14.613Z,63.08
2022-11-29T02:01:42.317Z,63.44
2022-11-29T02:04:09.377Z,64.00
2022-11-29T02:06:36.376Z,64.25
2022-11-29T02:09:03.895Z,65.28
2022-11-29T02:11:31.044Z,65.92
2022-11-29T02:13:57.972Z,65.35
2022-11-29T02:16:28.483Z,63.79
2022-11-29T02:18:58.970Z,63.20
2022-11-29T02:21:32.523Z,63.41
2022-11-29T02:24:15.005Z,63.89
2022-11-29T02:27:13.017Z,64.22
2022-11-29T02:29:58.700Z,64.59
2022-11-29T02:32:44.405Z,64.84
2022-11-29T02:35:45.973Z,64.68
2022-11-29T02:38:13.036Z,62.76
2022-11-29T02:41:07.944Z,62.23
2022-11-29T02:44:11.233Z,62.13
2022-11-29T02:47:12.624Z,63.17
2022-11-29T02:49:51.532Z,64.02
2022-11-29T02:52:18.532Z,64.71
2022-11-29T02:55:06.273Z,64.45
2022-11-29T02:57:48.373Z,63.06
2022-11-29T03:00:16.564Z,62.38
2022-11-29T03:02:51.715Z,62.52
2022-11-29T03:05:28.330Z,62.82
2022-11-29T03:07:57.963Z,63.44
2022-11-29T03:10:34.835Z,63.80
2022-11-29T03:13:03.446Z,64.54
2022-11-29T03:15:38.791Z,64.32
2022-11-29T03:18:33.195Z,62.54
2022-11-29T03:21:24.736Z,61.91
2022-11-29T03:23:54.963Z,62.53
2022-11-29T03:26:40.889Z,62.92
2022-11-29T03:29:30.185Z,63.39
2022-11-29T03:32:00.202Z,64.00
2022-11-29T03:35:02.678Z,64.78
2022-11-29T03:37:46.025Z,64.12
2022-11-29T03:40:18.093Z,62.80
2022-11-29T03:42:51.813Z,62.92
2022-11-29T03:45:30.317Z,63.96
2022-11-29T03:48:10.276Z,65.52
2022-11-29T03:50:46.383Z,66.24
2022-11-29T03:53:33.831Z,66.30
2022-11-29T03:56:01.553Z,65.21
2022-11-29T03:58:49.855Z,63.46
2022-11-29T04:01:22.874Z,63.13
2022-11-29T04:04:03.027Z,63.41
2022-11-29T04:06:52.463Z,64.11
2022-11-29T04:09:41.167Z,65.97
2022-11-29T04:12:22.584Z,66.59
2022-11-29T04:14:49.616Z,64.81
2022-11-29T04:17:19.521Z,63.56
2022-11-29T04:20:01.940Z,63.07
2022-11-29T04:22:41.586Z,63.66
2022-11-29T04:25:11.696Z,64.29
2022-11-29T04:28:32.335Z,64.72
2022-11-29T04:30:59.261Z,65.82
2022-11-29T04:33:53.635Z,64.54
2022-11-29T04:36:29.881Z,62.77
2022-11-29T04:39:16.774Z,62.43
2022-11-29T04:42:20.986Z,62.69
2022-11-29T04:45:09.926Z,64.16
2022-11-29T04:48:19.149Z,65.14
2022-11-29T04:51:14.518Z,66.93
2022-11-29T04:53:48.777Z,64.98
2022-11-29T04:56:45.192Z,63.16
2022-11-29T04:59:50.132Z,63.30
2022-11-29T05:02:32.524Z,64.03
2022-11-29T05:05:56.547Z,64.59
2022-11-29T05:09:05.805Z,65.29
2022-11-29T05:12:08.459Z,65.92
2022-11-29T05:14:57.813Z,64.42
2022-11-29T05:17:31.647Z,62.31
2022-11-29T05:20:29.669Z,62.39
2022-11-29T05:23:11.975Z,63.11
2022-11-29T05:29:53.853Z,64.87
2022-11-29T05:32:35.609Z,65.82
2022-11-29T05:35:36.005Z,65.21
2022-11-29T05:38:07.352Z,63.61
2022-11-29T05:40:42.071Z,63.13
2022-11-29T05:43:25.069Z,63.36
2022-11-29T05:46:17.082Z,63.84
2022-11-29T05:49:03.752Z,63.49
2022-11-29T05:51:50.749Z,64.49
2022-11-29T05:54:31.448Z,64.15
2022-11-29T05:57:32.044Z,62.61
2022-11-29T05:59:59.007Z,62.56
2022-11-29T06:02:54.097Z,62.92
2022-11-29T06:05:46.907Z,63.55
2022-11-29T06:08:27.513Z,64.08
2022-11-29T06:11:02.830Z,64.79
2022-11-29T06:13:36.325Z,63.60
2022-11-29T06:16:39.065Z,61.58
2022-11-29T06:19:45.816Z,61.08
2022-11-29T06:22:37.859Z,61.32
2022-11-29T06:25:26.543Z,61.88
2022-11-29T06:28:24.896Z,62.78
2022-11-29T06:31:27.780Z,63.59
2022-11-29T06:34:09.441Z,64.15
2022-11-29T06:36:36.417Z,62.14
2022-11-29T06:39:03.656Z,60.89
2022-11-29T06:41:31.191Z,60.43
2022-11-29T06:43:58.681Z,60.73
2022-11-29T16:26:11.941Z,63.36
2022-11-29T16:28:43.090Z,64.06
2022-11-29T16:31:12.372Z,63.73
2022-11-29T16:33:41.779Z,62.20
2022-11-29T16:36:22.885Z,61.75
2022-11-29T16:38:54.029Z,61.44
2022-11-29T16:41:31.814Z,61.92
2022-11-29T16:43:58.290Z,62.37
2022-11-29T16:46:26.768Z,62.99
2022-11-29T16:48:54.248Z,63.30
2022-11-29T16:51:32.732Z,63.67
2022-11-29T16:54:21.585Z,63.88
2022-11-29T16:56:49.150Z,62.43
2022-11-29T16:59:24.736Z,61.89
2022-11-29T17:01:55.304Z,61.81
2022-11-29T17:04:23.857Z,62.24
2022-11-29T17:06:53.347Z,62.70
2022-11-29T17:09:22.863Z,63.08
2022-11-29T17:11:49.205Z,63.76
2022-11-29T17:14:15.554Z,64.01
2022-11-29T17:16:42.450Z,62.58
2022-11-29T17:19:12.381Z,61.92
2022-11-29T17:21:38.952Z,62.13
2022-11-29T17:24:05.744Z,62.56
2022-11-29T17:26:32.041Z,63.15
2022-11-29T17:28:58.323Z,63.51
2022-11-29T17:31:24.800Z,64.08
2022-11-29T17:33:51.641Z,64.17
2022-11-29T17:36:19.044Z,62.99
2022-11-29T17:39:04.470Z,62.28
2022-11-29T17:41:32.206Z,62.38
2022-11-29T17:43:58.677Z,63.27
2022-11-29T17:46:25.826Z,63.76
2022-11-29T17:48:52.487Z,64.03
2022-11-29T17:51:50.161Z,64.62
2022-11-29T17:54:08.314Z,64.44
2022-11-29T17:56:34.763Z,62.89
2022-11-29T17:59:01.845Z,62.46
2022-11-29T18:01:30.320Z,62.57
2022-11-29T18:03:58.476Z,63.00
2022-11-29T18:06:26.298Z,63.66
2022-11-29T18:08:53.904Z,64.41
2022-11-29T18:11:22.432Z,65.11
2022-11-29T18:13:49.050Z,64.95
2022-11-29T18:16:17.261Z,63.35
2022-11-29T18:18:43.943Z,63.02
2022-11-29T18:21:10.659Z,63.26
2022-11-29T18:23:38.315Z,63.61
2022-11-29T18:26:11.946Z,64.12
2022-11-29T18:28:38.957Z,64.41
2022-11-29T18:31:09.640Z,65.00
2022-11-29T18:33:36.509Z,64.18
2022-11-29T18:36:10.372Z,62.09
2022-11-29T18:38:37.456Z,61.12
2022-11-29T18:41:11.929Z,61.40
2022-11-29T18:43:40.118Z,62.11
2022-11-29T18:46:10.635Z,62.99
2022-11-29T18:48:37.130Z,63.68
2022-11-29T18:51:04.191Z,64.19
2022-11-29T18:53:32.668Z,64.19
2022-11-29T18:56:04.104Z,62.29
2022-11-29T18:58:30.741Z,62.15
2022-11-29T19:01:08.253Z,62.71
2022-11-29T19:03:35.954Z,63.50
2022-11-29T19:06:04.321Z,63.98
2022-11-29T19:08:30.759Z,65.23
2022-11-29T19:10:57.399Z,64.48
2022-11-29T19:13:23.714Z,63.22
2022-11-29T19:15:53.859Z,62.49
2022-11-29T19:18:21.211Z,62.03
2022-11-29T19:20:47.939Z,62.52
2022-11-29T19:23:15.784Z,62.58
2022-11-29T19:25:42.467Z,63.23
2022-11-29T19:28:13.861Z,63.46
2022-11-29T19:30:40.859Z,63.50
2022-11-29T19:33:07.213Z,61.91
2022-11-29T19:35:34.068Z,61.58
2022-11-29T19:38:00.401Z,61.41
2022-11-29T19:40:27.399Z,61.76
2022-11-29T19:42:53.672Z,62.16
2022-11-29T19:45:21.230Z,62.79
2022-11-29T19:47:47.571Z,63.04
2022-11-29T19:50:13.961Z,63.47
2022-11-29T19:52:40.214Z,63.73
2022-11-29T19:55:06.761Z,62.26
2022-11-29T19:57:33.205Z,61.45
2022-11-29T19:59:59.601Z,61.39
2022-11-29T20:02:25.993Z,61.47
2022-11-29T20:04:52.480Z,62.09
2022-11-29T20:07:18.746Z,62.78
2022-11-29T20:09:45.830Z,63.31
2022-11-29T20:12:12.601Z,64.17
2022-11-29T20:14:38.961Z,64.00
2022-11-29T20:17:05.469Z,62.50
2022-11-29T20:19:31.713Z,61.64
2022-11-29T20:21:58.100Z,61.03
2022-11-29T20:24:24.329Z,61.97
2022-11-29T20:27:02.463Z,62.41
2022-11-29T20:29:30.098Z,62.76
2022-11-29T20:31:56.530Z,63.54
2022-11-29T20:34:23.345Z,63.63
2022-11-29T20:37:05.101Z,61.80
2022-11-29T20:39:36.818Z,61.23
2022-11-29T20:42:09.280Z,61.83
2022-11-29T20:44:37.388Z,62.79
2022-11-29T20:47:17.455Z,63.36
2022-11-29T20:49:44.318Z,64.09
2022-11-29T20:52:22.269Z,64.45
2022-11-29T20:54:48.449Z,63.65
2022-11-29T20:57:14.746Z,61.94
2022-11-29T20:59:41.286Z,61.57
2022-11-29T21:02:07.593Z,61.66
2022-11-29T21:04:33.947Z,62.18
2022-11-29T21:07:00.350Z,62.76
2022-11-29T21:09:28.531Z,63.31
2022-11-29T21:11:55.158Z,64.26
2022-11-29T21:14:21.848Z,63.59
2022-11-29T21:16:48.714Z,62.02
2022-11-29T21:19:18.985Z,61.86
2022-11-29T21:22:02.818Z,61.93
2022-11-29T21:24:55.566Z,62.92
2022-11-29T21:27:28.192Z,63.56
2022-11-29T21:29:55.203Z,64.01
2022-11-29T21:32:23.364Z,64.58
2022-11-29T21:34:49.695Z,63.84
2022-11-29T21:37:17.101Z,62.27
2022-11-29T21:39:43.491Z,61.61
2022-11-29T21:42:10.173Z,62.13
2022-11-29T21:44:36.496Z,62.76
2022-11-29T21:47:02.864Z,63.18
2022-11-29T21:49:30.241Z,63.52
2022-11-29T21:51:59.434Z,64.03
2022-11-29T21:54:25.966Z,63.67
2022-11-29T21:56:52.576Z,62.13
2022-11-29T21:59:19.224Z,61.02
2022-11-29T22:01:49.335Z,61.37
2022-11-29T22:04:16.241Z,61.49
2022-11-29T22:06:42.515Z,62.19
2022-11-29T22:09:09.513Z,62.63
2022-11-29T22:11:36.248Z,62.89
2022-11-29T22:14:13.560Z,63.49
2022-11-29T22:16:41.644Z,62.80
2022-11-29T22:19:08.581Z,61.51
2022-11-29T22:21:34.993Z,61.03
2022-11-29T22:24:01.241Z,60.84
2022-11-29T22:26:28.208Z,60.81
2022-11-29T22:28:54.797Z,61.18
2022-11-29T22:31:21.366Z,61.65
2022-11-29T22:33:47.755Z,62.32
2022-11-29T22:36:14.221Z,62.50
2022-11-29T22:38:40.469Z,62.88
2022-11-29T22:41:13.001Z,61.15
2022-11-29T22:43:39.825Z,61.00
2022-11-29T22:46:20.226Z,61.05
2022-11-29T22:48:47.665Z,61.47
2022-11-29T22:51:15.807Z,61.95
2022-11-29T22:53:48.468Z,62.32
2022-11-29T22:56:17.054Z,62.71
2022-11-29T22:58:44.741Z,63.20
2022-11-29T23:01:15.901Z,63.42
2022-11-29T23:03:43.430Z,62.02
2022-11-29T23:06:11.826Z,61.34
2022-11-29T23:08:38.360Z,61.49
2022-11-29T23:11:05.506Z,61.64
2022-11-29T23:13:36.238Z,62.08
2022-11-29T23:16:03.453Z,62.56
2022-11-29T23:18:30.006Z,63.07
2022-11-29T23:21:03.940Z,63.43
2022-11-29T23:23:30.443Z,63.61
2022-11-29T23:25:56.735Z,62.26
2022-11-29T23:28:23.820Z,61.45
2022-11-29T23:30:50.581Z,61.66
2022-11-29T23:33:16.891Z,62.42
2022-11-29T23:35:43.409Z,63.27
2022-11-29T23:38:09.706Z,63.80
2022-11-29T23:40:36.006Z,64.52
2022-11-29T23:43:02.555Z,64.44
2022-11-29T23:45:28.952Z,63.20
2022-11-29T23:47:55.646Z,62.63
2022-11-29T23:50:22.736Z,62.33
2022-11-29T23:52:55.410Z,62.39
2022-11-29T23:55:22.257Z,62.86
2022-11-29T23:57:48.731Z,63.37
